sensor_id;sensor_type;location;lat;lon;timestamp;P1;durP1;ratioP1;P2;durP2;ratioP2
7685;SDS011;3885;51.474;-2.576;2023-04-06T00:00:32;6.97;;;4.27;;
7685;SDS011;3885;51.474;-2.576;2023-04-06T00:02:59;12.87;;;4.80;;
7685;SDS011;3885;51.474;-2.576;2023-04-06T00:05:26;3.93;;;3.53;;
7685;SDS011;3885;51.474;-2.576;2023-04-06T00:07:55;5.90;;;4.47;;
7685;SDS011;3885;51.474;-2.576;2023-04-06T00:10:23;4.17;;;3.73;;
7685;SDS011;3885;51.474;-2.576;2023-04-06T00:12:51;4.97;;;4.10;;
7685;SDS011;3885;51.474;-2.576;2023-04-06T00:15:18;9.30;;;4.80;;
7685;SDS011;3885;51.474;-2.576;2023-04-06T00:17:46;6.77;;;3.80;;
7685;SDS011;3885;51.474;-2.576;2023-04-06T00:20:13;7.43;;;4.37;;
7685;SDS011;3885;51.474;-2.576;2023-04-06T00:22:40;5.47;;;4.33;;
7685;SDS011;3885;51.474;-2.576;2023-04-06T00:25:07;4.23;;;3.50;;
7685;SDS011;3885;51.474;-2.576;2023-04-06T00:27:35;7.47;;;4.20;;
7685;SDS011;3885;51.474;-2.576;2023-04-06T00:30:03;5.10;;;4.10;;
7685;SDS011;3885;51.474;-2.576;2023-04-06T00:32:31;5.40;;;3.40;;
7685;SDS011;3885;51.474;-2.576;2023-04-06T00:34:58;5.13;;;4.17;;
7685;SDS011;3885;51.474;-2.576;2023-04-06T00:37:25;5.23;;;3.20;;
7685;SDS011;3885;51.474;-2.576;2023-04-06T00:39:52;4.20;;;3.80;;
7685;SDS011;3885;51.474;-2.576;2023-04-06T00:42:19;4.57;;;3.27;;
7685;SDS011;3885;51.474;-2.576;2023-04-06T00:44:50;10.33;;;4.63;;
7685;SDS011;3885;51.474;-2.576;2023-04-06T00:47:19;4.90;;;3.97;;
7685;SDS011;3885;51.474;-2.576;2023-04-06T00:49:46;5.50;;;3.60;;
7685;SDS011;3885;51.474;-2.576;2023-04-06T00:52:13;6.57;;;4.97;;
7685;SDS011;3885;51.474;-2.576;2023-04-06T00:54:41;4.10;;;3.50;;
7685;SDS011;3885;51.474;-2.576;2023-04-06T00:57:08;6.03;;;3.43;;
7685;SDS011;3885;51.474;-2.576;2023-04-06T00:59:35;4.43;;;3.80;;
7685;SDS011;3885;51.474;-2.576;2023-04-06T01:02:02;4.53;;;3.80;;
7685;SDS011;3885;51.474;-2.576;2023-04-06T01:04:31;4.77;;;3.90;;
7685;SDS011;3885;51.474;-2.576;2023-04-06T01:06:58;5.67;;;3.90;;
7685;SDS011;3885;51.474;-2.576;2023-04-06T01:09:27;4.93;;;3.47;;
7685;SDS011;3885;51.474;-2.576;2023-04-06T01:11:54;2.93;;;2.73;;
7685;SDS011;3885;51.474;-2.576;2023-04-06T01:14:21;9.20;;;3.80;;
7685;SDS011;3885;51.474;-2.576;2023-04-06T01:16:49;5.57;;;3.23;;
7685;SDS011;3885;51.474;-2.576;2023-04-06T01:19:16;3.63;;;3.33;;
7685;SDS011;3885;51.474;-2.576;2023-04-06T01:21:44;3.97;;;3.47;;
7685;SDS011;3885;51.474;-2.576;2023-04-06T01:24:13;4.03;;;3.57;;
7685;SDS011;3885;51.474;-2.576;2023-04-06T01:26:40;4.60;;;3.20;;
7685;SDS011;3885;51.474;-2.576;2023-04-06T01:29:07;6.40;;;3.20;;
7685;SDS011;3885;51.474;-2.576;2023-04-06T01:31:34;4.20;;;3.80;;
7685;SDS011;3885;51.474;-2.576;2023-04-06T01:34:01;5.63;;;3.77;;
7685;SDS011;3885;51.474;-2.576;2023-04-06T01:36:28;2.80;;;2.60;;
7685;SDS011;3885;51.474;-2.576;2023-04-06T01:38:55;2.67;;;2.47;;
7685;SDS011;3885;51.474;-2.576;2023-04-06T01:41:23;7.17;;;3.30;;
7685;SDS011;3885;51.474;-2.576;2023-04-06T01:43:50;2.90;;;2.33;;
7685;SDS011;3885;51.474;-2.576;2023-04-06T01:46:19;2.30;;;2.10;;
7685;SDS011;3885;51.474;-2.576;2023-04-06T01:48:46;3.43;;;1.90;;
7685;SDS011;3885;51.474;-2.576;2023-04-06T01:51:14;2.10;;;1.90;;
7685;SDS011;3885;51.474;-2.576;2023-04-06T01:53:41;1.53;;;1.43;;
7685;SDS011;3885;51.474;-2.576;2023-04-06T01:56:08;2.00;;;1.80;;
7685;SDS011;3885;51.474;-2.576;2023-04-06T01:58:36;1.80;;;1.70;;
7685;SDS011;3885;51.474;-2.576;2023-04-06T02:01:03;2.40;;;2.10;;
7685;SDS011;3885;51.474;-2.576;2023-04-06T02:03:30;1.20;;;1.10;;
7685;SDS011;3885;51.474;-2.576;2023-04-06T02:05:57;2.00;;;1.90;;
7685;SDS011;3885;51.474;-2.576;2023-04-06T02:08:24;1.50;;;1.40;;
7685;SDS011;3885;51.474;-2.576;2023-04-06T02:10:51;1.50;;;1.40;;
7685;SDS011;3885;51.474;-2.576;2023-04-06T02:13:18;2.87;;;1.20;;
7685;SDS011;3885;51.474;-2.576;2023-04-06T02:15:47;1.10;;;1.10;;
7685;SDS011;3885;51.474;-2.576;2023-04-06T02:18:14;1.70;;;1.60;;
7685;SDS011;3885;51.474;-2.576;2023-04-06T02:20:42;2.17;;;1.30;;
7685;SDS011;3885;51.474;-2.576;2023-04-06T02:23:09;1.00;;;1.00;;
7685;SDS011;3885;51.474;-2.576;2023-04-06T02:25:36;1.10;;;1.00;;
7685;SDS011;3885;51.474;-2.576;2023-04-06T02:28:03;1.00;;;0.90;;
7685;SDS011;3885;51.474;-2.576;2023-04-06T02:30:30;0.67;;;0.67;;
7685;SDS011;3885;51.474;-2.576;2023-04-06T02:32:59;1.70;;;0.90;;
7685;SDS011;3885;51.474;-2.576;2023-04-06T02:35:27;2.93;;;0.80;;
7685;SDS011;3885;51.474;-2.576;2023-04-06T02:37:56;0.83;;;0.83;;
7685;SDS011;3885;51.474;-2.576;2023-04-06T02:40:23;2.60;;;0.60;;
7685;SDS011;3885;51.474;-2.576;2023-04-06T02:42:50;1.80;;;0.63;;
7685;SDS011;3885;51.474;-2.576;2023-04-06T02:45:17;0.93;;;0.93;;
7685;SDS011;3885;51.474;-2.576;2023-04-06T02:47:45;0.70;;;0.70;;
7685;SDS011;3885;51.474;-2.576;2023-04-06T02:50:13;1.43;;;0.90;;
7685;SDS011;3885;51.474;-2.576;2023-04-06T02:52:41;1.33;;;0.80;;
7685;SDS011;3885;51.474;-2.576;2023-04-06T02:55:08;0.60;;;0.60;;
7685;SDS011;3885;51.474;-2.576;2023-04-06T02:57:35;2.00;;;0.67;;
7685;SDS011;3885;51.474;-2.576;2023-04-06T03:00:02;3.17;;;0.90;;
7685;SDS011;3885;51.474;-2.576;2023-04-06T03:02:30;0.50;;;0.50;;
7685;SDS011;3885;51.474;-2.576;2023-04-06T03:04:57;1.73;;;0.87;;
7685;SDS011;3885;51.474;-2.576;2023-04-06T03:07:25;0.60;;;0.50;;
7685;SDS011;3885;51.474;-2.576;2023-04-06T03:09:52;2.50;;;0.63;;
7685;SDS011;3885;51.474;-2.576;2023-04-06T03:12:19;0.60;;;0.60;;
7685;SDS011;3885;51.474;-2.576;2023-04-06T03:14:46;0.77;;;0.77;;
7685;SDS011;3885;51.474;-2.576;2023-04-06T03:17:13;0.63;;;0.60;;
7685;SDS011;3885;51.474;-2.576;2023-04-06T03:19:40;0.73;;;0.73;;
7685;SDS011;3885;51.474;-2.576;2023-04-06T03:22:07;3.47;;;0.73;;
7685;SDS011;3885;51.474;-2.576;2023-04-06T03:24:36;2.43;;;0.50;;
7685;SDS011;3885;51.474;-2.576;2023-04-06T03:27:03;0.60;;;0.60;;
7685;SDS011;3885;51.474;-2.576;2023-04-06T03:29:31;3.87;;;0.97;;
7685;SDS011;3885;51.474;-2.576;2023-04-06T03:31:58;2.20;;;0.70;;
7685;SDS011;3885;51.474;-2.576;2023-04-06T03:34:25;0.70;;;0.70;;
7685;SDS011;3885;51.474;-2.576;2023-04-06T03:36:52;0.80;;;0.80;;
7685;SDS011;3885;51.474;-2.576;2023-04-06T03:39:19;2.13;;;0.73;;
7685;SDS011;3885;51.474;-2.576;2023-04-06T03:41:47;0.70;;;0.70;;
7685;SDS011;3885;51.474;-2.576;2023-04-06T03:44:14;2.60;;;1.00;;
7685;SDS011;3885;51.474;-2.576;2023-04-06T03:46:41;2.07;;;1.00;;
7685;SDS011;3885;51.474;-2.576;2023-04-06T03:49:08;3.90;;;1.37;;
7685;SDS011;3885;51.474;-2.576;2023-04-06T03:51:35;6.33;;;1.63;;
7685;SDS011;3885;51.474;-2.576;2023-04-06T03:54:03;9.33;;;1.77;;
7685;SDS011;3885;51.474;-2.576;2023-04-06T03:56:30;2.20;;;1.87;;
7685;SDS011;3885;51.474;-2.576;2023-04-06T03:58:58;7.63;;;2.03;;
7685;SDS011;3885;51.474;-2.576;2023-04-06T04:01:26;9.50;;;1.57;;
7685;SDS011;3885;51.474;-2.576;2023-04-06T04:03:53;3.70;;;2.30;;
7685;SDS011;3885;51.474;-2.576;2023-04-06T04:06:20;6.37;;;1.20;;
7685;SDS011;3885;51.474;-2.576;2023-04-06T04:08:47;6.43;;;1.33;;
7685;SDS011;3885;51.474;-2.576;2023-04-06T04:11:14;8.07;;;2.27;;
7685;SDS011;3885;51.474;-2.576;2023-04-06T04:13:41;27.10;;;3.70;;
7685;SDS011;3885;51.474;-2.576;2023-04-06T04:16:10;5.57;;;1.33;;
7685;SDS011;3885;51.474;-2.576;2023-04-06T04:18:37;7.60;;;1.93;;
7685;SDS011;3885;51.474;-2.576;2023-04-06T04:21:04;7.60;;;1.87;;
7685;SDS011;3885;51.474;-2.576;2023-04-06T04:23:31;2.03;;;1.40;;
7685;SDS011;3885;51.474;-2.576;2023-04-06T04:25:58;10.13;;;2.07;;
7685;SDS011;3885;51.474;-2.576;2023-04-06T04:28:25;3.60;;;1.80;;
7685;SDS011;3885;51.474;-2.576;2023-04-06T04:30:51;10.23;;;1.93;;
7685;SDS011;3885;51.474;-2.576;2023-04-06T04:33:20;8.50;;;2.00;;
7685;SDS011;3885;51.474;-2.576;2023-04-06T04:35:47;4.63;;;1.40;;
7685;SDS011;3885;51.474;-2.576;2023-04-06T04:38:14;9.20;;;1.80;;
7685;SDS011;3885;51.474;-2.576;2023-04-06T04:40:41;11.47;;;2.20;;
7685;SDS011;3885;51.474;-2.576;2023-04-06T04:43:08;15.37;;;1.90;;
7685;SDS011;3885;51.474;-2.576;2023-04-06T04:45:35;6.80;;;1.70;;
7685;SDS011;3885;51.474;-2.576;2023-04-06T04:48:02;8.63;;;1.50;;
7685;SDS011;3885;51.474;-2.576;2023-04-06T04:50:31;10.07;;;2.13;;
7685;SDS011;3885;51.474;-2.576;2023-04-06T04:52:58;21.03;;;2.83;;
7685;SDS011;3885;51.474;-2.576;2023-04-06T04:55:25;9.70;;;1.63;;
7685;SDS011;3885;51.474;-2.576;2023-04-06T04:57:52;16.13;;;2.70;;
7685;SDS011;3885;51.474;-2.576;2023-04-06T05:00:19;8.63;;;1.80;;
7685;SDS011;3885;51.474;-2.576;2023-04-06T05:02:46;7.30;;;1.90;;
7685;SDS011;3885;51.474;-2.576;2023-04-06T05:05:13;7.30;;;1.90;;
7685;SDS011;3885;51.474;-2.576;2023-04-06T05:07:42;7.80;;;2.07;;
7685;SDS011;3885;51.474;-2.576;2023-04-06T05:10:09;6.73;;;2.50;;
7685;SDS011;3885;51.474;-2.576;2023-04-06T05:12:36;10.93;;;2.10;;
7685;SDS011;3885;51.474;-2.576;2023-04-06T05:15:04;4.20;;;1.47;;
7685;SDS011;3885;51.474;-2.576;2023-04-06T05:17:32;7.40;;;1.93;;
7685;SDS011;3885;51.474;-2.576;2023-04-06T05:19:59;2.83;;;1.67;;
7685;SDS011;3885;51.474;-2.576;2023-04-06T05:22:27;14.70;;;2.60;;
7685;SDS011;3885;51.474;-2.576;2023-04-06T05:24:55;7.67;;;2.33;;
7685;SDS011;3885;51.474;-2.576;2023-04-06T05:27:22;16.33;;;3.57;;
7685;SDS011;3885;51.474;-2.576;2023-04-06T05:29:49;8.70;;;2.50;;
7685;SDS011;3885;51.474;-2.576;2023-04-06T05:32:16;13.03;;;2.83;;
7685;SDS011;3885;51.474;-2.576;2023-04-06T05:34:47;11.83;;;2.50;;
7685;SDS011;3885;51.474;-2.576;2023-04-06T05:37:14;16.03;;;2.73;;
7685;SDS011;3885;51.474;-2.576;2023-04-06T05:39:41;13.40;;;2.53;;
7685;SDS011;3885;51.474;-2.576;2023-04-06T05:42:09;10.97;;;2.43;;
7685;SDS011;3885;51.474;-2.576;2023-04-06T05:44:37;13.63;;;3.30;;
7685;SDS011;3885;51.474;-2.576;2023-04-06T05:47:04;6.83;;;2.30;;
7685;SDS011;3885;51.474;-2.576;2023-04-06T05:49:31;7.10;;;2.90;;
7685;SDS011;3885;51.474;-2.576;2023-04-06T05:51:58;6.90;;;2.17;;
7685;SDS011;3885;51.474;-2.576;2023-04-06T05:54:26;7.73;;;3.27;;
7685;SDS011;3885;51.474;-2.576;2023-04-06T05:56:53;16.30;;;3.50;;
7685;SDS011;3885;51.474;-2.576;2023-04-06T05:59:21;11.20;;;4.50;;
7685;SDS011;3885;51.474;-2.576;2023-04-06T06:01:48;8.37;;;4.50;;
7685;SDS011;3885;51.474;-2.576;2023-04-06T06:04:15;21.10;;;4.70;;
7685;SDS011;3885;51.474;-2.576;2023-04-06T06:06:42;13.00;;;5.00;;
7685;SDS011;3885;51.474;-2.576;2023-04-06T06:09:09;15.47;;;5.23;;
7685;SDS011;3885;51.474;-2.576;2023-04-06T06:11:37;15.63;;;5.97;;
7685;SDS011;3885;51.474;-2.576;2023-04-06T06:14:04;10.33;;;3.73;;
7685;SDS011;3885;51.474;-2.576;2023-04-06T06:16:32;11.37;;;4.90;;
7685;SDS011;3885;51.474;-2.576;2023-04-06T06:19:00;10.50;;;4.80;;
7685;SDS011;3885;51.474;-2.576;2023-04-06T06:21:27;13.67;;;4.80;;
7685;SDS011;3885;51.474;-2.576;2023-04-06T06:23:54;12.90;;;4.60;;
7685;SDS011;3885;51.474;-2.576;2023-04-06T06:26:21;19.97;;;5.03;;
7685;SDS011;3885;51.474;-2.576;2023-04-06T06:28:48;7.70;;;4.17;;
7685;SDS011;3885;51.474;-2.576;2023-04-06T06:31:15;17.33;;;3.97;;
7685;SDS011;3885;51.474;-2.576;2023-04-06T06:33:46;9.17;;;4.40;;
7685;SDS011;3885;51.474;-2.576;2023-04-06T06:36:15;9.93;;;4.40;;
7685;SDS011;3885;51.474;-2.576;2023-04-06T06:38:42;12.00;;;3.83;;
7685;SDS011;3885;51.474;-2.576;2023-04-06T06:41:09;14.33;;;4.00;;
7685;SDS011;3885;51.474;-2.576;2023-04-06T06:43:37;12.47;;;4.53;;
7685;SDS011;3885;51.474;-2.576;2023-04-06T06:46:04;11.50;;;3.70;;
7685;SDS011;3885;51.474;-2.576;2023-04-06T06:48:31;28.63;;;6.90;;
7685;SDS011;3885;51.474;-2.576;2023-04-06T06:51:00;14.00;;;6.33;;
7685;SDS011;3885;51.474;-2.576;2023-04-06T06:53:27;14.73;;;4.70;;
7685;SDS011;3885;51.474;-2.576;2023-04-06T06:55:54;14.60;;;9.03;;
7685;SDS011;3885;51.474;-2.576;2023-04-06T06:58:21;12.23;;;5.10;;
7685;SDS011;3885;51.474;-2.576;2023-04-06T07:00:48;17.80;;;4.57;;
7685;SDS011;3885;51.474;-2.576;2023-04-06T07:03:15;12.53;;;6.10;;
7685;SDS011;3885;51.474;-2.576;2023-04-06T07:05:44;16.37;;;5.17;;
7685;SDS011;3885;51.474;-2.576;2023-04-06T07:08:16;13.63;;;4.53;;
7685;SDS011;3885;51.474;-2.576;2023-04-06T07:10:43;17.53;;;5.03;;
7685;SDS011;3885;51.474;-2.576;2023-04-06T07:13:10;9.87;;;4.90;;
7685;SDS011;3885;51.474;-2.576;2023-04-06T07:15:37;16.60;;;4.10;;
7685;SDS011;3885;51.474;-2.576;2023-04-06T07:18:04;20.57;;;5.43;;
7685;SDS011;3885;51.474;-2.576;2023-04-06T07:20:31;11.57;;;4.57;;
7685;SDS011;3885;51.474;-2.576;2023-04-06T07:22:58;16.90;;;4.20;;
7685;SDS011;3885;51.474;-2.576;2023-04-06T07:25:26;17.63;;;3.77;;
7685;SDS011;3885;51.474;-2.576;2023-04-06T07:27:53;8.20;;;2.90;;
7685;SDS011;3885;51.474;-2.576;2023-04-06T07:30:20;7.47;;;3.53;;
7685;SDS011;3885;51.474;-2.576;2023-04-06T07:32:50;11.23;;;3.10;;
7685;SDS011;3885;51.474;-2.576;2023-04-06T07:35:17;8.50;;;3.20;;
7685;SDS011;3885;51.474;-2.576;2023-04-06T07:37:44;18.17;;;4.00;;
7685;SDS011;3885;51.474;-2.576;2023-04-06T07:40:11;9.60;;;3.60;;
7685;SDS011;3885;51.474;-2.576;2023-04-06T07:42:40;19.43;;;3.63;;
7685;SDS011;3885;51.474;-2.576;2023-04-06T07:45:07;5.47;;;3.10;;
7685;SDS011;3885;51.474;-2.576;2023-04-06T07:47:34;17.73;;;3.00;;
7685;SDS011;3885;51.474;-2.576;2023-04-06T07:50:01;5.30;;;2.80;;
7685;SDS011;3885;51.474;-2.576;2023-04-06T07:52:28;6.87;;;2.77;;
7685;SDS011;3885;51.474;-2.576;2023-04-06T07:54:57;8.10;;;3.07;;
7685;SDS011;3885;51.474;-2.576;2023-04-06T07:57:24;5.83;;;3.50;;
7685;SDS011;3885;51.474;-2.576;2023-04-06T07:59:52;7.20;;;3.10;;
7685;SDS011;3885;51.474;-2.576;2023-04-06T08:02:19;6.57;;;2.93;;
7685;SDS011;3885;51.474;-2.576;2023-04-06T08:04:47;6.57;;;3.20;;
7685;SDS011;3885;51.474;-2.576;2023-04-06T08:07:14;10.00;;;4.00;;
7685;SDS011;3885;51.474;-2.576;2023-04-06T08:09:40;10.60;;;3.60;;
7685;SDS011;3885;51.474;-2.576;2023-04-06T08:12:07;10.47;;;3.83;;
7685;SDS011;3885;51.474;-2.576;2023-04-06T08:14:34;4.17;;;3.43;;
7685;SDS011;3885;51.474;-2.576;2023-04-06T08:17:03;5.10;;;2.90;;
7685;SDS011;3885;51.474;-2.576;2023-04-06T08:19:30;7.20;;;2.63;;
7685;SDS011;3885;51.474;-2.576;2023-04-06T08:21:57;5.90;;;3.20;;
7685;SDS011;3885;51.474;-2.576;2023-04-06T08:24:24;19.50;;;4.17;;
7685;SDS011;3885;51.474;-2.576;2023-04-06T08:26:51;9.17;;;2.93;;
7685;SDS011;3885;51.474;-2.576;2023-04-06T08:29:18;3.37;;;2.90;;
7685;SDS011;3885;51.474;-2.576;2023-04-06T08:31:45;13.43;;;3.50;;
7685;SDS011;3885;51.474;-2.576;2023-04-06T08:34:13;8.20;;;3.40;;
7685;SDS011;3885;51.474;-2.576;2023-04-06T08:36:40;7.03;;;3.57;;
7685;SDS011;3885;51.474;-2.576;2023-04-06T08:39:07;11.00;;;3.63;;
7685;SDS011;3885;51.474;-2.576;2023-04-06T08:41:34;10.27;;;4.40;;
7685;SDS011;3885;51.474;-2.576;2023-04-06T08:44:02;8.87;;;3.07;;
7685;SDS011;3885;51.474;-2.576;2023-04-06T08:46:30;9.27;;;3.40;;
7685;SDS011;3885;51.474;-2.576;2023-04-06T08:48:57;4.20;;;2.00;;
7685;SDS011;3885;51.474;-2.576;2023-04-06T08:51:27;4.43;;;2.30;;
7685;SDS011;3885;51.474;-2.576;2023-04-06T08:53:56;9.83;;;3.43;;
7685;SDS011;3885;51.474;-2.576;2023-04-06T08:56:24;10.47;;;3.60;;
7685;SDS011;3885;51.474;-2.576;2023-04-06T08:58:53;4.93;;;2.13;;
7685;SDS011;3885;51.474;-2.576;2023-04-06T09:01:21;7.30;;;2.20;;
7685;SDS011;3885;51.474;-2.576;2023-04-06T09:03:50;8.03;;;2.00;;
7685;SDS011;3885;51.474;-2.576;2023-04-06T09:06:19;2.30;;;2.03;;
7685;SDS011;3885;51.474;-2.576;2023-04-06T09:08:48;4.20;;;1.70;;
7685;SDS011;3885;51.474;-2.576;2023-04-06T09:11:15;2.33;;;1.77;;
7685;SDS011;3885;51.474;-2.576;2023-04-06T09:13:46;5.60;;;1.53;;
7685;SDS011;3885;51.474;-2.576;2023-04-06T09:16:14;5.90;;;2.07;;
7685;SDS011;3885;51.474;-2.576;2023-04-06T09:18:41;8.20;;;1.80;;
7685;SDS011;3885;51.474;-2.576;2023-04-06T09:21:09;6.90;;;1.53;;
7685;SDS011;3885;51.474;-2.576;2023-04-06T09:23:36;7.13;;;1.80;;
7685;SDS011;3885;51.474;-2.576;2023-04-06T09:26:06;6.03;;;2.10;;
7685;SDS011;3885;51.474;-2.576;2023-04-06T09:28:41;6.20;;;1.77;;
7685;SDS011;3885;51.474;-2.576;2023-04-06T09:31:12;8.40;;;1.33;;
7685;SDS011;3885;51.474;-2.576;2023-04-06T09:33:40;8.53;;;1.80;;
7685;SDS011;3885;51.474;-2.576;2023-04-06T09:36:09;1.00;;;0.90;;
7685;SDS011;3885;51.474;-2.576;2023-04-06T09:38:37;3.73;;;1.50;;
7685;SDS011;3885;51.474;-2.576;2023-04-06T09:41:06;3.50;;;1.03;;
7685;SDS011;3885;51.474;-2.576;2023-04-06T09:43:33;4.27;;;0.90;;
7685;SDS011;3885;51.474;-2.576;2023-04-06T09:46:00;1.80;;;0.93;;
7685;SDS011;3885;51.474;-2.576;2023-04-06T09:48:30;7.63;;;1.43;;
7685;SDS011;3885;51.474;-2.576;2023-04-06T09:51:02;6.23;;;0.90;;
7685;SDS011;3885;51.474;-2.576;2023-04-06T09:53:30;1.60;;;1.00;;
7685;SDS011;3885;51.474;-2.576;2023-04-06T09:56:02;9.90;;;1.20;;
7685;SDS011;3885;51.474;-2.576;2023-04-06T09:58:35;6.57;;;1.43;;
7685;SDS011;3885;51.474;-2.576;2023-04-06T10:01:07;2.50;;;1.20;;
7685;SDS011;3885;51.474;-2.576;2023-04-06T10:03:42;1.93;;;1.10;;
7685;SDS011;3885;51.474;-2.576;2023-04-06T10:06:16;3.30;;;1.00;;
7685;SDS011;3885;51.474;-2.576;2023-04-06T10:08:47;3.63;;;1.40;;
7685;SDS011;3885;51.474;-2.576;2023-04-06T10:11:19;5.50;;;1.77;;
7685;SDS011;3885;51.474;-2.576;2023-04-06T10:13:48;2.40;;;1.20;;
7685;SDS011;3885;51.474;-2.576;2023-04-06T10:16:16;4.23;;;1.40;;
7685;SDS011;3885;51.474;-2.576;2023-04-06T10:18:44;12.97;;;1.43;;
7685;SDS011;3885;51.474;-2.576;2023-04-06T10:21:16;7.67;;;1.50;;
7685;SDS011;3885;51.474;-2.576;2023-04-06T10:23:47;4.47;;;1.43;;
7685;SDS011;3885;51.474;-2.576;2023-04-06T10:26:19;8.93;;;2.93;;
7685;SDS011;3885;51.474;-2.576;2023-04-06T10:28:48;8.40;;;1.97;;
7685;SDS011;3885;51.474;-2.576;2023-04-06T10:31:23;3.23;;;1.67;;
7685;SDS011;3885;51.474;-2.576;2023-04-06T10:33:54;6.07;;;1.70;;
7685;SDS011;3885;51.474;-2.576;2023-04-06T10:36:22;4.37;;;2.23;;
7685;SDS011;3885;51.474;-2.576;2023-04-06T10:38:53;9.20;;;1.53;;
7685;SDS011;3885;51.474;-2.576;2023-04-06T10:41:21;3.30;;;1.97;;
7685;SDS011;3885;51.474;-2.576;2023-04-06T10:43:56;3.17;;;1.43;;
7685;SDS011;3885;51.474;-2.576;2023-04-06T10:46:26;4.70;;;2.03;;
7685;SDS011;3885;51.474;-2.576;2023-04-06T10:48:55;5.80;;;1.47;;
7685;SDS011;3885;51.474;-2.576;2023-04-06T10:51:24;6.73;;;1.47;;
7685;SDS011;3885;51.474;-2.576;2023-04-06T10:53:53;6.57;;;1.97;;
7685;SDS011;3885;51.474;-2.576;2023-04-06T10:56:21;7.40;;;1.90;;
7685;SDS011;3885;51.474;-2.576;2023-04-06T10:58:51;5.10;;;1.53;;
7685;SDS011;3885;51.474;-2.576;2023-04-06T11:01:22;2.73;;;1.73;;
7685;SDS011;3885;51.474;-2.576;2023-04-06T11:03:52;4.57;;;2.00;;
7685;SDS011;3885;51.474;-2.576;2023-04-06T11:06:20;12.70;;;1.83;;
7685;SDS011;3885;51.474;-2.576;2023-04-06T11:08:48;3.37;;;1.60;;
7685;SDS011;3885;51.474;-2.576;2023-04-06T11:11:16;9.63;;;1.33;;
7685;SDS011;3885;51.474;-2.576;2023-04-06T11:13:44;5.70;;;1.03;;
7685;SDS011;3885;51.474;-2.576;2023-04-06T11:16:13;18.63;;;2.13;;
7685;SDS011;3885;51.474;-2.576;2023-04-06T11:18:52;5.20;;;1.00;;
7685;SDS011;3885;51.474;-2.576;2023-04-06T11:21:31;6.47;;;1.27;;
7685;SDS011;3885;51.474;-2.576;2023-04-06T11:24:09;3.47;;;1.00;;
7685;SDS011;3885;51.474;-2.576;2023-04-06T11:26:41;4.17;;;0.70;;
7685;SDS011;3885;51.474;-2.576;2023-04-06T11:29:10;32.60;;;1.77;;
7685;SDS011;3885;51.474;-2.576;2023-04-06T11:31:39;0.90;;;0.90;;
7685;SDS011;3885;51.474;-2.576;2023-04-06T11:34:11;0.83;;;0.83;;
7685;SDS011;3885;51.474;-2.576;2023-04-06T11:36:40;5.80;;;0.97;;
7685;SDS011;3885;51.474;-2.576;2023-04-06T11:39:08;3.17;;;1.00;;
7685;SDS011;3885;51.474;-2.576;2023-04-06T11:41:36;4.53;;;0.90;;
7685;SDS011;3885;51.474;-2.576;2023-04-06T11:44:03;2.93;;;1.07;;
7685;SDS011;3885;51.474;-2.576;2023-04-06T11:46:32;12.40;;;1.67;;
7685;SDS011;3885;51.474;-2.576;2023-04-06T11:48:59;1.13;;;0.90;;
7685;SDS011;3885;51.474;-2.576;2023-04-06T11:51:28;3.37;;;0.93;;
7685;SDS011;3885;51.474;-2.576;2023-04-06T11:53:55;2.63;;;0.80;;
7685;SDS011;3885;51.474;-2.576;2023-04-06T11:56:25;1.87;;;0.87;;
7685;SDS011;3885;51.474;-2.576;2023-04-06T11:58:57;2.83;;;0.90;;
7685;SDS011;3885;51.474;-2.576;2023-04-06T12:01:24;2.80;;;0.60;;
7685;SDS011;3885;51.474;-2.576;2023-04-06T12:03:52;1.17;;;1.07;;
7685;SDS011;3885;51.474;-2.576;2023-04-06T12:06:20;1.30;;;0.83;;
7685;SDS011;3885;51.474;-2.576;2023-04-06T12:08:48;1.33;;;1.00;;
7685;SDS011;3885;51.474;-2.576;2023-04-06T12:11:15;4.20;;;1.10;;
7685;SDS011;3885;51.474;-2.576;2023-04-06T12:13:42;2.10;;;0.83;;
7685;SDS011;3885;51.474;-2.576;2023-04-06T12:16:09;2.73;;;1.10;;
7685;SDS011;3885;51.474;-2.576;2023-04-06T12:18:36;5.80;;;1.00;;
7685;SDS011;3885;51.474;-2.576;2023-04-06T12:21:03;5.43;;;1.10;;
7685;SDS011;3885;51.474;-2.576;2023-04-06T12:23:31;5.53;;;1.40;;
7685;SDS011;3885;51.474;-2.576;2023-04-06T12:25:59;1.33;;;0.90;;
7685;SDS011;3885;51.474;-2.576;2023-04-06T12:28:27;1.90;;;0.90;;
7685;SDS011;3885;51.474;-2.576;2023-04-06T12:30:54;4.37;;;1.03;;
7685;SDS011;3885;51.474;-2.576;2023-04-06T12:33:21;3.23;;;0.97;;
7685;SDS011;3885;51.474;-2.576;2023-04-06T12:35:48;3.63;;;1.17;;
7685;SDS011;3885;51.474;-2.576;2023-04-06T12:38:15;6.43;;;1.90;;
7685;SDS011;3885;51.474;-2.576;2023-04-06T12:40:42;9.30;;;1.30;;
7685;SDS011;3885;51.474;-2.576;2023-04-06T12:43:11;3.13;;;0.70;;
7685;SDS011;3885;51.474;-2.576;2023-04-06T12:45:38;0.80;;;0.70;;
7685;SDS011;3885;51.474;-2.576;2023-04-06T12:48:06;2.30;;;0.60;;
7685;SDS011;3885;51.474;-2.576;2023-04-06T12:50:33;2.00;;;0.60;;
7685;SDS011;3885;51.474;-2.576;2023-04-06T12:53:00;1.47;;;0.70;;
7685;SDS011;3885;51.474;-2.576;2023-04-06T12:55:29;3.27;;;0.50;;
7685;SDS011;3885;51.474;-2.576;2023-04-06T12:57:56;0.77;;;0.70;;
7685;SDS011;3885;51.474;-2.576;2023-04-06T13:00:24;2.20;;;0.60;;
7685;SDS011;3885;51.474;-2.576;2023-04-06T13:02:52;0.93;;;0.60;;
7685;SDS011;3885;51.474;-2.576;2023-04-06T13:05:19;1.53;;;0.70;;
7685;SDS011;3885;51.474;-2.576;2023-04-06T13:07:46;0.60;;;0.60;;
7685;SDS011;3885;51.474;-2.576;2023-04-06T13:10:13;0.53;;;0.53;;
7685;SDS011;3885;51.474;-2.576;2023-04-06T13:12:40;1.17;;;0.60;;
7685;SDS011;3885;51.474;-2.576;2023-04-06T13:15:07;0.67;;;0.60;;
7685;SDS011;3885;51.474;-2.576;2023-04-06T13:17:36;6.33;;;0.70;;
7685;SDS011;3885;51.474;-2.576;2023-04-06T13:20:03;1.37;;;0.70;;
7685;SDS011;3885;51.474;-2.576;2023-04-06T13:22:31;0.60;;;0.60;;
7685;SDS011;3885;51.474;-2.576;2023-04-06T13:24:58;3.43;;;0.80;;
7685;SDS011;3885;51.474;-2.576;2023-04-06T13:27:25;6.30;;;1.17;;
7685;SDS011;3885;51.474;-2.576;2023-04-06T13:29:52;0.60;;;0.60;;
7685;SDS011;3885;51.474;-2.576;2023-04-06T13:32:20;1.33;;;0.70;;
7685;SDS011;3885;51.474;-2.576;2023-04-06T13:34:48;0.70;;;0.70;;
7685;SDS011;3885;51.474;-2.576;2023-04-06T13:37:18;7.63;;;0.80;;
7685;SDS011;3885;51.474;-2.576;2023-04-06T13:39:45;1.73;;;1.13;;
7685;SDS011;3885;51.474;-2.576;2023-04-06T13:42:12;0.70;;;0.70;;
7685;SDS011;3885;51.474;-2.576;2023-04-06T13:44:39;1.07;;;0.90;;
7685;SDS011;3885;51.474;-2.576;2023-04-06T13:47:06;1.33;;;0.87;;
7685;SDS011;3885;51.474;-2.576;2023-04-06T13:49:33;8.10;;;0.90;;
7685;SDS011;3885;51.474;-2.576;2023-04-06T13:52:02;9.00;;;0.90;;
7685;SDS011;3885;51.474;-2.576;2023-04-06T13:54:29;1.50;;;0.77;;
7685;SDS011;3885;51.474;-2.576;2023-04-06T13:56:56;2.27;;;0.90;;
7685;SDS011;3885;51.474;-2.576;2023-04-06T13:59:23;2.20;;;0.80;;
7685;SDS011;3885;51.474;-2.576;2023-04-06T14:01:50;4.87;;;0.80;;
7685;SDS011;3885;51.474;-2.576;2023-04-06T14:04:17;1.17;;;0.60;;
7685;SDS011;3885;51.474;-2.576;2023-04-06T14:06:45;1.50;;;1.00;;
7685;SDS011;3885;51.474;-2.576;2023-04-06T14:09:13;2.10;;;1.00;;
7685;SDS011;3885;51.474;-2.576;2023-04-06T14:11:40;6.07;;;2.77;;
7685;SDS011;3885;51.474;-2.576;2023-04-06T14:14:07;1.70;;;1.50;;
7685;SDS011;3885;51.474;-2.576;2023-04-06T14:16:34;13.40;;;4.10;;
7685;SDS011;3885;51.474;-2.576;2023-04-06T14:19:01;17.33;;;4.40;;
7685;SDS011;3885;51.474;-2.576;2023-04-06T14:21:28;29.70;;;10.50;;
7685;SDS011;3885;51.474;-2.576;2023-04-06T14:23:56;17.23;;;4.77;;
7685;SDS011;3885;51.474;-2.576;2023-04-06T14:26:25;5.43;;;1.80;;
7685;SDS011;3885;51.474;-2.576;2023-04-06T14:28:52;18.30;;;7.47;;
7685;SDS011;3885;51.474;-2.576;2023-04-06T14:31:19;7.70;;;2.43;;
7685;SDS011;3885;51.474;-2.576;2023-04-06T14:33:46;3.70;;;1.33;;
7685;SDS011;3885;51.474;-2.576;2023-04-06T14:36:13;1.70;;;1.40;;
7685;SDS011;3885;51.474;-2.576;2023-04-06T14:38:40;5.80;;;1.23;;
7685;SDS011;3885;51.474;-2.576;2023-04-06T14:41:09;10.33;;;2.23;;
7685;SDS011;3885;51.474;-2.576;2023-04-06T14:43:42;6.87;;;1.67;;
7685;SDS011;3885;51.474;-2.576;2023-04-06T14:46:10;2.70;;;1.57;;
7685;SDS011;3885;51.474;-2.576;2023-04-06T14:48:38;12.80;;;1.17;;
7685;SDS011;3885;51.474;-2.576;2023-04-06T14:51:05;3.13;;;1.20;;
7685;SDS011;3885;51.474;-2.576;2023-04-06T14:53:32;6.00;;;1.57;;
7685;SDS011;3885;51.474;-2.576;2023-04-06T14:55:59;5.33;;;1.23;;
7685;SDS011;3885;51.474;-2.576;2023-04-06T14:58:26;1.33;;;1.10;;
7685;SDS011;3885;51.474;-2.576;2023-04-06T15:00:56;4.97;;;1.27;;